Time;durP1;ratioP1;P1;durP2;ratioP2;P2;SDS_P1;SDS_P2;PMS_P1;PMS_P2;Temp;Humidity;BMP_temperature;BMP_pressure;BME280_temperature;BME280_humidity;BME280_pressure;Samples;Min_cycle;Max_cycle;Signal;HPM_P1;HPM_P2
2022/05/06 00:01:51;;;;;;;100.22;39.75;;;;;;;;;;5074887;28;20058;-76
2022/05/06 00:04:17;;;;;;;112.72;40.83;;;;;;;;;;5075315;28;20051;-75
2022/05/06 00:06:43;;;;;;;101.85;39.83;;;;;;;;;;5074982;28;20044;-75
2022/05/06 00:09:09;;;;;;;106.88;41.20;;;;;;;;;;5058815;28;20436;-75
2022/05/06 00:11:36;;;;;;;101.72;39.05;;;;;;;;;;5074908;28;20050;-75
2022/05/06 00:14:02;;;;;;;90.82;35.85;;;12.20;99.90;;;;;;5074830;28;20063;-75
2022/05/06 00:16:28;;;;;;;102.07;40.35;;;;;;;;;;5074728;28;20066;-75
2022/05/06 00:18:55;;;;;;;105.65;39.40;;;;;;;;;;5074700;28;20075;-76
2022/05/06 00:21:21;;;;;;;93.68;36.22;;;;;;;;;;5058431;28;20036;-75
2022/05/06 00:23:47;;;;;;;91.32;37.03;;;;;;;;;;5074598;28;20044;-75
2022/05/06 00:26:13;;;;;;;93.25;38.75;;;;;;;;;;5058015;28;20124;-75
2022/05/06 00:28:40;;;;;;;98.35;38.38;;;;;;;;;;5074896;28;20079;-75
2022/05/06 00:31:06;;;;;;;100.18;38.05;;;;;;;;;;5074884;28;20036;-75
2022/05/06 00:33:33;;;;;;;97.60;38.38;;;;;;;;;;5074519;28;20048;-75
2022/05/06 00:36:01;;;;;;;101.47;39.45;;;;;;;;;;5074402;28;20565;-75
2022/05/06 00:38:27;;;;;;;100.55;39.97;;;;;;;;;;5074501;28;20048;-75
2022/05/06 00:40:53;;;;;;;92.05;37.25;;;;;;;;;;5074529;28;20037;-75
2022/05/06 00:43:20;;;;;;;95.82;38.00;;;;;;;;;;5074386;28;20044;-75
2022/05/06 00:45:54;;;;;;;105.07;40.80;;;12.10;99.90;;;;;;5041832;28;20059;-75
2022/05/06 00:48:31;;;;;;;96.28;38.20;;;12.20;99.90;;;;;;5073451;28;20052;-75
2022/05/06 00:50:59;;;;;;;92.25;37.75;;;12.40;99.90;;;;;;5074365;28;20083;-75
2022/05/06 00:53:26;;;;;;;92.68;38.03;;;12.20;99.90;;;;;;5057668;28;20119;-75
2022/05/06 00:55:52;;;;;;;101.97;38.05;;;;;;;;;;5057735;28;20044;-75
2022/05/06 00:58:19;;;;;;;97.47;38.28;;;;;;;;;;5074039;28;20052;-75
2022/05/06 01:00:45;;;;;;;97.13;37.83;;;;;;;;;;5073925;28;20110;-75
2022/05/06 01:03:12;;;;;;;96.90;38.90;;;;;;;;;;5074121;28;20071;-75
2022/05/06 01:05:39;;;;;;;90.10;38.05;;;12.40;99.90;;;;;;5073894;28;20155;-75
2022/05/06 01:08:05;;;;;;;96.32;38.63;;;13.40;99.90;;;;;;5057295;28;20048;-75
2022/05/06 01:10:31;;;;;;;96.65;38.33;;;;;;;;;;5073785;28;20040;-75
2022/05/06 01:12:58;;;;;;;97.32;37.63;;;;;;;;;;5073998;28;20044;-75
2022/05/06 01:15:25;;;;;;;93.97;39.65;;;11.90;99.90;;;;;;5073745;28;20037;-75
2022/05/06 01:17:53;;;;;;;94.63;39.13;;;12.40;99.90;;;;;;5056845;28;20492;-75
2022/05/06 01:20:20;;;;;;;88.93;38.47;;;;;;;;;;5074380;28;20119;-75
2022/05/06 01:22:51;;;;;;;90.22;37.88;;;12.10;99.90;;;;;;5073617;28;20036;-75
2022/05/06 01:25:17;;;;;;;94.20;38.75;;;;;;;;;;5057251;28;20043;-75
2022/05/06 01:28:03;;;;;;;89.00;37.90;;;12.20;99.90;;;;;;5057271;28;20045;-75
2022/05/06 01:30:38;;;;;;;88.80;38.97;;;12.20;99.90;;;;;;5073774;28;20454;-75
2022/05/06 01:33:06;;;;;;;87.80;37.53;;;12.00;99.90;;;;;;5073428;28;20051;-75
2022/05/06 01:35:58;;;;;;;95.85;39.15;;;12.10;99.90;;;;;;5073669;28;20032;-75
2022/05/06 01:38:27;;;;;;;93.65;39.55;;;;;;;;;;5066532;28;20562;-75
2022/05/06 01:40:58;;;;;;;92.25;38.35;;;11.90;99.90;;;;;;5073160;28;20044;-75
2022/05/06 01:43:25;;;;;;;85.55;36.50;;;;;;;;;;5073531;28;20480;-75
2022/05/06 01:45:52;;;;;;;84.88;38.47;;;;;;;;;;5073193;28;20040;-75
2022/05/06 01:48:20;;;;;;;92.32;40.15;;;12.10;99.90;;;;;;5056782;28;20473;-75
2022/05/06 01:50:48;;;;;;;88.28;38.03;;;;;;;;;;5073136;28;20093;-75
2022/05/06 01:53:17;;;;;;;94.10;40.47;;;;;;;;;;5072984;28;20036;-75
2022/05/06 01:55:44;;;;;;;83.70;36.33;;;12.00;99.90;;;;;;5073113;28;20119;-75
2022/05/06 01:58:11;;;;;;;90.32;40.25;;;;;;;;;;5056280;28;20056;-75
2022/05/06 02:00:37;;;;;;;80.07;36.15;;;;;;;;;;5055054;28;20556;-75
2022/05/06 02:03:04;;;;;;;85.13;36.72;;;12.00;99.90;;;;;;5072912;28;20503;-75
2022/05/06 02:05:30;;;;;;;84.10;37.65;;;;;;;;;;5056222;28;20502;-75
2022/05/06 02:07:57;;;;;;;89.10;37.03;;;;;;;;;;5072643;28;20139;-75
2022/05/06 02:10:25;;;;;;;84.93;37.17;;;;;;;;;;5072878;28;20131;-75
2022/05/06 02:12:51;;;;;;;81.15;35.92;;;;;;;;;;5072728;28;20489;-75
2022/05/06 02:15:18;;;;;;;86.20;37.55;;;;;;;;;;5072770;28;20044;-75
2022/05/06 02:17:44;;;;;;;84.20;36.45;;;;;;;;;;5072465;28;20051;-75
2022/05/06 02:20:12;;;;;;;85.10;37.63;;;11.70;99.90;;;;;;5072534;28;20119;-75
2022/05/06 02:22:42;;;;;;;85.63;36.33;;;11.70;99.90;;;;;;5072462;28;20493;-75
2022/05/06 02:25:09;;;;;;;83.47;35.25;;;;;;;;;;5056010;28;20031;-75
2022/05/06 02:27:39;;;;;;;79.25;35.42;;;;;;;;;;5072653;28;20515;-75
2022/05/06 02:35:37;;;;;;;79.55;33.28;;;;;;;;;;5072561;28;20067;-75
2022/05/06 02:38:07;;;;;;;73.88;33.35;;;12.10;99.90;;;;;;5072094;28;20048;-75
2022/05/06 02:40:34;;;;;;;79.18;32.47;;;;;;;;;;5072160;28;20045;-75
2022/05/06 02:43:01;;;;;;;78.55;33.97;;;;;;;;;;5072287;28;20388;-75
2022/05/06 02:45:27;;;;;;;79.82;32.75;;;;;;;;;;5055609;28;20028;-75
2022/05/06 02:47:53;;;;;;;105.50;31.50;;;;;;;;;;5055451;28;20131;-75
2022/05/06 02:50:19;;;;;;;95.68;32.38;;;;;;;;;;5072114;28;20052;-75
2022/05/06 02:52:46;;;;;;;72.28;31.25;;;;;;;;;;5055430;28;20040;-75
2022/05/06 02:55:12;;;;;;;140.10;33.40;;;;;;;;;;5071967;28;20037;-75
2022/05/06 02:57:38;;;;;;;99.95;32.47;;;;;;;;;;5071856;28;20076;-74
2022/05/06 03:00:05;;;;;;;73.28;31.20;;;11.50;99.90;;;;;;5071650;28;20400;-74
2022/05/06 03:02:31;;;;;;;99.40;30.23;;;;;;;;;;5054918;28;20040;-74
2022/05/06 03:04:57;;;;;;;113.22;26.25;;;;;;;;;;5071983;28;20097;-74
2022/05/06 03:07:23;;;;;;;71.18;27.45;;;;;;;;;;5071814;28;20040;-74
2022/05/06 03:09:49;;;;;;;144.55;26.13;;;;;;;;;;5071689;28;20049;-74
2022/05/06 03:12:26;;;;;;;151.55;27.13;;;;;;;;;;5071386;28;20045;-74
2022/05/06 03:14:52;;;;;;;65.50;26.13;;;;;;;;;;5071450;28;20119;-74
2022/05/06 03:17:18;;;;;;;61.42;25.55;;;;;;;;;;5071712;28;20480;-74
2022/05/06 03:19:44;;;;;;;52.95;24.25;;;;;;;;;;5071773;28;20504;-74
2022/05/06 03:22:10;;;;;;;125.63;27.23;;;;;;;;;;5072170;28;20413;-74
2022/05/06 03:24:36;;;;;;;79.03;26.05;;;;;;;;;;5071657;28;20144;-74
2022/05/06 03:27:02;;;;;;;80.68;24.92;;;;;;;;;;5055131;28;20511;-74
2022/05/06 03:29:29;;;;;;;58.05;24.23;;;;;;;;;;5072027;28;20086;-74
2022/05/06 03:31:56;;;;;;;51.05;22.75;;;;;;;;;;5055119;28;20036;-75
2022/05/06 03:34:22;;;;;;;62.30;20.73;;;;;;;;;;5054950;28;20040;-75
2022/05/06 03:36:48;;;;;;;39.92;18.70;;;;;;;;;;5071881;28;20036;-75
2022/05/06 03:39:14;;;;;;;55.72;17.85;;;;;;;;;;5038537;28;20044;-75
2022/05/06 03:41:40;;;;;;;39.33;15.93;;;;;;;;;;5054908;28;20093;-75
2022/05/06 03:44:06;;;;;;;61.42;15.07;;;;;;;;;;5071511;28;20037;-74
2022/05/06 03:46:33;;;;;;;63.63;13.85;;;11.30;99.90;;;;;;5071728;28;20045;-75
2022/05/06 03:49:01;;;;;;;31.55;13.70;;;;;;;;;;5071446;28;20044;-75
2022/05/06 03:51:28;;;;;;;30.50;14.32;;;11.10;99.90;;;;;;5055575;28;20115;-74
2022/05/06 03:53:58;;;;;;;24.83;13.80;;;;;;;;;;5071539;28;20139;-74
2022/05/06 03:56:24;;;;;;;23.02;12.48;;;;;;;;;;5071236;28;20040;-75
2022/05/06 03:58:54;;;;;;;31.40;12.45;;;;;;;;;;5071236;28;20051;-74
2022/05/06 04:01:20;;;;;;;31.83;12.38;;;;;;;;;;5071230;28;20063;-75
2022/05/06 04:03:47;;;;;;;25.95;11.70;;;;;;;;;;5054835;28;20037;-74
2022/05/06 04:06:14;;;;;;;54.45;11.07;;;;;;;;;;5071563;28;20051;-74
2022/05/06 04:08:41;;;;;;;45.22;12.65;;;;;;;;;;5071268;28;20051;-74
2022/05/06 04:11:08;;;;;;;32.65;12.38;;;;;;;;;;5071484;28;20045;-74
2022/05/06 04:13:34;;;;;;;22.02;12.63;;;;;;;;;;5105252;28;20044;-74
2022/05/06 04:16:01;;;;;;;31.48;12.40;;;;;;;;;;5071078;28;20037;-73
2022/05/06 04:18:28;;;;;;;32.20;13.55;;;;;;;;;;5054398;28;20037;-73
2022/05/06 04:23:39;;;;;;;55.40;11.20;;;;;;;;;;5072780;28;20629;-73
2022/05/06 04:26:06;;;;;;;26.45;11.35;;;;;;;;;;5041824;28;20106;-73
2022/05/06 04:28:32;;;;;;;25.55;11.43;;;;;;;;;;5074648;28;20041;-73
2022/05/06 04:31:00;;;;;;;28.77;11.63;;;11.20;99.90;;;;;;5075907;28;20063;-73
2022/05/06 04:33:26;;;;;;;29.77;12.32;;;;;;;;;;5074646;28;20426;-73
2022/05/06 04:35:53;;;;;;;30.50;9.27;;;;;;;;;;5074772;28;20040;-74
2022/05/06 04:38:19;;;;;;;19.13;9.88;;;;;;;;;;5057819;28;20083;-73
2022/05/06 04:40:45;;;;;;;17.65;9.50;;;;;;;;;;5074495;28;20044;-73
2022/05/06 04:43:13;;;;;;;19.05;10.30;;;;;;;;;;5074465;28;20480;-73
2022/05/06 04:45:39;;;;;;;28.02;10.52;;;10.90;99.90;;;;;;5057791;28;20055;-73
2022/05/06 04:48:07;;;;;;;27.63;8.60;;;11.50;99.90;;;;;;5074891;28;20392;-74
2022/05/06 04:50:36;;;;;;;37.38;8.77;;;;;;;;;;5057666;28;20052;-73
2022/05/06 04:53:02;;;;;;;18.35;9.98;;;;;;;;;;5057624;28;20489;-74
2022/05/06 04:55:28;;;;;;;18.23;9.40;;;;;;;;;;5074066;28;20040;-73
2022/05/06 04:57:54;;;;;;;18.60;9.38;;;;;;;;;;5074250;28;20060;-74
2022/05/06 05:00:21;;;;;;;18.00;9.23;;;11.50;99.90;;;;;;5074160;28;20400;-73
2022/05/06 05:02:48;;;;;;;26.00;10.18;;;;;;;;;;5074152;28;20056;-74
2022/05/06 05:05:14;;;;;;;20.33;10.13;;;;;;;;;;5074150;28;20032;-73
2022/05/06 05:07:40;;;;;;;29.08;9.75;;;;;;;;;;5057314;28;20041;-74
2022/05/06 05:10:07;;;;;;;24.15;10.55;;;11.80;99.90;;;;;;5057655;28;20060;-73
2022/05/06 05:12:33;;;;;;;33.28;9.80;;;;;;;;;;5057257;28;20044;-74
2022/05/06 05:14:59;;;;;;;24.73;10.00;;;;;;;;;;5073995;28;20480;-73
2022/05/06 05:17:25;;;;;;;20.45;9.65;;;;;;;;;;5057376;28;20090;-73
2022/05/06 05:19:51;;;;;;;18.83;9.93;;;;;;;;;;5073814;28;20044;-74
2022/05/06 05:22:18;;;;;;;19.27;9.27;;;10.60;99.90;;;;;;5075079;28;20366;-75
2022/05/06 05:24:44;;;;;;;22.02;9.75;;;;;;;;;;5057287;28;20036;-75
2022/05/06 05:27:10;;;;;;;25.33;9.82;;;;;;;;;;5056934;28;20127;-75
2022/05/06 05:29:37;;;;;;;18.42;9.80;;;;;;;;;;5073835;28;20072;-75
2022/05/06 05:32:03;;;;;;;17.80;9.68;;;;;;;;;;5107521;28;20040;-75
2022/05/06 05:34:29;;;;;;;19.10;11.00;;;;;;;;;;5056624;28;20055;-75
2022/05/06 05:36:55;;;;;;;20.27;10.25;;;;;;;;;;5073316;28;20036;-75
2022/05/06 05:39:21;;;;;;;20.55;11.30;;;;;;;;;;5073612;28;20059;-75
2022/05/06 05:41:47;;;;;;;21.23;11.18;;;;;;;;;;5073720;28;20049;-75
2022/05/06 05:49:43;;;;;;;22.63;10.70;;;;;;;;;;5073193;28;20396;-75
2022/05/06 05:52:10;;;;;;;20.33;10.63;;;;;;;;;;5056529;28;20044;-75
2022/05/06 05:54:36;;;;;;;19.20;10.63;;;;;;;;;;5056765;28;20041;-75
2022/05/06 05:57:03;;;;;;;19.77;10.80;;;11.40;99.90;;;;;;5073199;28;20127;-75
2022/05/06 05:59:29;;;;;;;17.95;10.18;;;;;;;;;;5090059;28;20036;-76
2022/05/06 06:01:56;;;;;;;18.05;10.57;;;;;;;;;;5056328;28;20060;-75
2022/05/06 06:04:22;;;;;;;18.48;10.98;;;;;;;;;;5073072;28;20037;-76
2022/05/06 06:06:48;;;;;;;25.52;11.60;;;;;;;;;;5073016;28;20115;-76
2022/05/06 06:09:15;;;;;;;22.40;12.57;;;;;;;;;;5072929;28;20102;-74
2022/05/06 06:11:41;;;;;;;23.25;12.25;;;;;;;;;;5073387;28;20072;-75
2022/05/06 06:14:07;;;;;;;25.60;13.38;;;;;;;;;;5056486;28;20036;-76
2022/05/06 06:16:33;;;;;;;22.48;13.10;;;;;;;;;;5075032;28;20040;-73
2022/05/06 06:18:59;;;;;;;30.08;15.13;;;;;;;;;;5073955;28;20063;-73
2022/05/06 06:21:25;;;;;;;29.38;15.15;;;12.30;99.90;;;;;;5056478;28;20036;-73
2022/05/06 06:23:51;;;;;;;28.08;15.30;;;;;;;;;;5073141;28;20044;-74
2022/05/06 06:26:17;;;;;;;24.10;13.70;;;;;;;;;;5072644;28;20040;-74
2022/05/06 06:28:43;;;;;;;24.05;14.13;;;;;;;;;;5055923;28;20047;-74
2022/05/06 06:31:09;;;;;;;28.63;15.60;;;;;;;;;;5072604;28;20048;-74
2022/05/06 06:33:38;;;;;;;28.10;16.10;;;;;;;;;;5055928;28;20052;-73
2022/05/06 06:36:05;;;;;;;23.55;13.55;;;11.40;99.90;;;;;;5073000;28;20056;-74
2022/05/06 06:38:31;;;;;;;22.58;13.30;;;;;;;;;;5072262;28;20484;-73
2022/05/06 06:40:57;;;;;;;25.60;14.02;;;;;;;;;;5072505;28;20032;-73
2022/05/06 06:43:23;;;;;;;20.48;12.25;;;;;;;;;;5055719;28;20174;-73
2022/05/06 06:45:49;;;;;;;24.30;12.43;;;;;;;;;;5055000;28;20586;-74
2022/05/06 06:48:16;;;;;;;24.40;12.35;;;;;;;;;;5072559;28;20040;-74
2022/05/06 06:50:42;;;;;;;23.77;13.35;;;;;;;;;;5072533;28;20127;-73
2022/05/06 06:53:08;;;;;;;22.48;12.73;;;;;;;;;;5039295;28;20040;-73
2022/05/06 06:55:35;;;;;;;22.65;11.77;;;;;;;;;;5055955;28;20071;-73
2022/05/06 06:58:01;;;;;;;20.85;12.57;;;;;;;;;;5055519;28;20036;-73
2022/05/06 07:00:27;;;;;;;18.63;11.63;;;;;;;;;;5055178;28;20055;-74
2022/05/06 07:02:55;;;;;;;16.20;9.95;;;;;;;;;;5072153;28;20401;-73
2022/05/06 07:05:22;;;;;;;15.35;10.60;;;;;;;;;;5055676;28;20040;-73
2022/05/06 07:13:18;;;;;;;17.20;9.77;;;;;;;;;;5071911;28;20044;-73
2022/05/06 07:15:44;;;;;;;14.40;9.63;;;;;;;;;;5072152;28;20040;-72
2022/05/06 07:18:10;;;;;;;14.90;9.07;;;;;;;;;;5071604;28;20552;-72
2022/05/06 07:20:36;;;;;;;12.60;8.52;;;;;;;;;;5055378;28;20036;-73
2022/05/06 07:23:03;;;;;;;13.27;8.77;;;;;;;;;;5071891;28;20048;-72
2022/05/06 07:25:30;;;;;;;13.90;8.93;;;;;;;;;;5071838;28;20047;-72
2022/05/06 07:27:56;;;;;;;12.25;8.30;;;;;;;;;;5071882;28;20047;-72
2022/05/06 07:30:22;;;;;;;15.02;8.07;;;;;;;;;;5055228;28;20572;-72
2022/05/06 07:32:49;;;;;;;10.02;7.32;;;;;;;;;;5055063;28;20048;-72
2022/05/06 07:35:15;;;;;;;12.40;9.10;;;;;;;;;;5071666;28;20052;-72
2022/05/06 07:37:41;;;;;;;10.27;8.30;;;;;;;;;;5071441;28;20040;-72
2022/05/06 07:40:11;;;;;;;11.10;8.25;;;14.20;99.90;;;;;;5071823;28;20044;-72
2022/05/06 07:42:38;;;;;;;11.45;7.80;;;;;;;;;;5072921;28;20105;-72
2022/05/06 07:45:04;;;;;;;10.68;8.38;;;13.70;99.90;;;;;;5055084;28;20040;-72
2022/05/06 07:47:32;;;;;;;11.27;7.75;;;;;;;;;;5071473;28;20123;-72
2022/05/06 07:49:58;;;;;;;9.88;7.57;;;;;;;;;;5071357;28;20052;-72
2022/05/06 07:52:24;;;;;;;10.15;7.53;;;;;;;;;;5054604;28;20131;-72
2022/05/06 07:54:50;;;;;;;10.20;7.68;;;;;;;;;;5054689;28;20439;-72
2022/05/06 07:57:17;;;;;;;10.32;7.28;;;;;;;;;;5056052;28;20040;-72
2022/05/06 07:59:43;;;;;;;10.32;7.60;;;;;;;;;;5076485;28;20450;-72
2022/05/06 08:04:54;;;;;;;12.02;7.28;;;;;;;;;;5046861;28;20047;-72
2022/05/06 08:07:20;;;;;;;10.38;7.45;;;;;;;;;;5075287;28;20047;-73
2022/05/06 08:09:46;;;;;;;9.43;7.65;;;;;;;;;;5058808;28;20044;-73
2022/05/06 08:12:15;;;;;;;14.93;7.80;;;;;;;;;;5075267;28;20147;-72
2022/05/06 08:14:42;;;;;;;9.15;7.25;;;;;;;;;;5074636;28;20036;-73
2022/05/06 08:17:08;;;;;;;13.32;7.88;;;;;;;;;;5074593;28;20047;-73
2022/05/06 08:19:35;;;;;;;11.05;7.53;;;;;;;;;;5058259;28;20120;-72
2022/05/06 08:22:01;;;;;;;10.80;8.02;;;;;;;;;;5074853;28;20372;-73
2022/05/06 08:24:27;;;;;;;14.05;8.57;;;;;;;;;;5074647;28;20036;-72
2022/05/06 08:26:53;;;;;;;14.05;8.57;;;;;;;;;;5074768;28;20037;-73
2022/05/06 08:29:20;;;;;;;11.93;8.43;;;;;;;;;;5074557;28;20041;-73
2022/05/06 08:31:46;;;;;;;13.02;8.68;;;;;;;;;;5074774;28;20083;-73
2022/05/06 08:34:13;;;;;;;13.02;8.93;;;14.60;99.90;;;;;;5074875;28;20040;-73
2022/05/06 08:36:41;;;;;;;12.90;8.40;;;14.50;99.90;;;;;;5057836;28;20135;-72
2022/05/06 08:39:08;;;;;;;11.85;8.88;;;14.50;99.90;;;;;;5074543;28;20045;-73
2022/05/06 08:41:37;;;;;;;12.38;8.20;;;;;;;;;;5074361;28;20036;-72
2022/05/06 08:52:26;;;;;;;9.60;7.18;;;15.10;99.90;;;;;;5074110;28;20072;-72
2022/05/06 08:54:52;;;;;;;11.00;7.43;;;;;;;;;;5074261;28;20040;-72
2022/05/06 08:57:18;;;;;;;11.50;7.00;;;;;;;;;;5073973;28;20543;-72
2022/05/06 08:59:51;;;;;;;10.52;7.50;;;15.00;99.90;;;;;;5073969;28;20043;-73
2022/05/06 09:02:16;;;;;;;9.05;6.63;;;14.20;99.90;;;;;;5073995;28;20141;-72
2022/05/06 09:04:42;;;;;;;10.77;7.15;;;14.80;99.90;;;;;;5073764;28;20102;-72
2022/05/06 09:07:19;;;;;;;10.80;7.10;;;;;;;;;;5074043;28;20435;-72
2022/05/06 09:10:12;;;;;;;12.05;5.80;;;15.40;99.90;;;;;;5056749;28;20040;-72
2022/05/06 09:12:41;;;;;;;10.35;6.47;;;;;;;;;;5074323;28;20048;-72
2022/05/06 09:17:52;;;;;;;8.73;5.63;;;;;;;;;;5073842;28;20044;-72
2022/05/06 09:20:22;;;;;;;10.15;5.97;;;15.60;99.80;;;;;;5057247;28;20191;-72
2022/05/06 09:22:52;;;;;;;9.98;5.60;;;;;;;;;;5073602;28;20488;-72
2022/05/06 09:25:37;;;;;;;13.07;5.45;;;16.10;98.80;;;;;;5073580;28;20051;-72
2022/05/06 09:28:03;;;;;;;5.78;4.45;;;;;;;;;;5073615;28;20048;-72
2022/05/06 09:30:29;;;;;;;7.63;4.70;;;;;;;;;;5073535;28;20131;-72
2022/05/06 09:32:55;;;;;;;6.70;4.47;;;;;;;;;;5107568;28;20096;-73
2022/05/06 09:35:26;;;;;;;8.70;5.30;;;16.60;98.30;;;;;;5056925;28;20045;-73
2022/05/06 09:37:52;;;;;;;12.45;6.38;;;;;;;;;;5073586;28;20044;-72
2022/05/06 09:40:28;;;;;;;13.40;5.68;;;16.50;97.30;;;;;;5073603;28;20381;-72
2022/05/06 09:42:54;;;;;;;7.65;5.47;;;;;;;;;;5073560;28;20044;-73
2022/05/06 09:45:39;;;;;;;8.88;5.80;;;16.70;96.90;;;;;;5073448;28;20041;-72
2022/05/06 09:48:08;;;;;;;9.25;6.03;;;16.60;96.80;;;;;;5056483;28;20041;-73
2022/05/06 09:50:45;;;;;;;16.23;6.93;;;16.50;97.20;;;;;;5073571;28;20457;-72
2022/05/06 09:53:12;;;;;;;9.85;7.30;;;16.70;97.30;;;;;;5073277;28;20373;-72
2022/05/06 09:55:42;;;;;;;15.32;9.00;;;16.80;97.20;;;;;;5073017;28;20062;-73
2022/05/06 09:58:08;;;;;;;15.70;8.93;;;16.80;96.80;;;;;;5072853;28;20076;-73
2022/05/06 10:00:35;;;;;;;12.38;8.20;;;17.10;97.00;;;;;;5072595;28;20092;-73
2022/05/06 10:03:01;;;;;;;14.15;8.02;;;;;;;;;;5072700;28;20047;-73
2022/05/06 10:05:29;;;;;;;12.80;7.78;;;17.30;96.40;;;;;;5056016;28;20377;-73
2022/05/06 10:07:58;;;;;;;11.57;7.78;;;17.00;96.20;;;;;;5072852;28;20093;-73
2022/05/06 10:10:40;;;;;;;13.75;7.97;;;17.20;96.30;;;;;;5072499;28;20082;-72
2022/05/06 10:13:28;;;;;;;12.75;8.55;;;16.80;96.40;;;;;;5073881;28;20072;-72
2022/05/06 10:15:54;;;;;;;15.63;8.30;;;;;;;;;;5072527;28;20436;-72
2022/05/06 10:18:40;;;;;;;13.90;8.93;;;;;;;;;;5072489;28;20052;-72
2022/05/06 10:21:06;;;;;;;16.85;9.88;;;;;;;;;;5071526;28;20561;-72
2022/05/06 10:23:52;;;;;;;15.32;9.13;;;16.90;96.10;;;;;;5072396;28;20068;-73
2022/05/06 10:26:33;;;;;;;17.00;9.32;;;17.40;95.20;;;;;;5072306;28;20036;-72
2022/05/06 10:34:35;;;;;;;14.02;9.77;;;;;;;;;;5072213;28;20113;-84
2022/05/06 10:37:03;;;;;;;14.18;10.07;;;;;;;;;;5059440;28;20521;-74
2022/05/06 10:39:32;;;;;;;16.58;9.75;;;17.70;95.70;;;;;;5091430;28;20088;-72
2022/05/06 10:42:15;;;;;;;15.18;9.43;;;17.70;95.00;;;;;;5087361;28;20077;-79
2022/05/06 10:44:48;;;;;;;;;;;18.00;96.20;;;;;;5071266;28;20102;-77
2022/05/06 10:47:14;;;;;;;12.50;8.52;;;;;;;;;;5078707;28;19916;-77
2022/05/06 10:49:39;;;;;;;18.40;9.25;;;17.80;98.40;;;;;;5083881;28;20037;-77
2022/05/06 10:52:22;;;;;;;14.98;9.50;;;19.00;98.80;;;;;;5085189;28;20177;-75
2022/05/06 10:54:53;;;;;;;16.10;9.38;;;18.20;94.70;;;;;;5072420;28;20072;-76
2022/05/06 10:57:23;;;;;;;16.92;9.13;;;18.40;93.40;;;;;;5076908;28;20032;-75
2022/05/06 10:59:49;;;;;;;13.25;8.18;;;;;;;;;;5079119;28;20396;-75
2022/05/06 11:02:16;;;;;;;16.25;8.25;;;;;;;;;;5072749;28;20400;-75
2022/05/06 11:04:42;;;;;;;13.27;8.55;;;;;;;;;;5053822;28;20040;-75
2022/05/06 11:07:12;;;;;;;10.75;7.57;;;19.80;93.00;;;;;;5061049;28;20116;-75
2022/05/06 11:09:38;;;;;;;12.60;6.63;;;19.60;96.70;;;;;;5072109;28;20077;-75
2022/05/06 11:12:04;;;;;;;10.93;6.40;;;20.20;96.80;;;;;;5077477;28;20039;-75
2022/05/06 11:14:30;;;;;;;16.23;7.18;;;;;;;;;;5072091;28;20085;-76
2022/05/06 11:17:15;;;;;;;12.05;7.03;;;19.50;92.00;;;;;;5053139;28;20036;-76
2022/05/06 11:19:41;;;;;;;14.90;7.25;;;;;;;;;;5083590;28;20068;-79
2022/05/06 11:22:11;;;;;;;9.43;5.40;;;;;;;;;;5100517;28;20029;-75
2022/05/06 11:24:37;;;;;;;14.80;8.30;;;;;;;;;;5090588;28;20044;-74
2022/05/06 11:27:15;;;;;;;15.38;8.70;;;19.30;95.80;;;;;;5088588;28;20169;-74
2022/05/06 11:29:59;;;;;;;17.45;9.00;;;19.00;92.70;;;;;;5071606;28;20032;-75
2022/05/06 11:32:29;;;;;;;13.73;8.48;;;19.00;92.20;;;;;;5063931;28;20169;-79
2022/05/06 11:34:58;;;;;;;16.80;9.65;;;18.70;95.50;;;;;;5061538;28;20082;-76
2022/05/06 11:37:26;;;;;;;16.92;10.30;;;19.10;92.30;;;;;;5075763;28;20476;-76
2022/05/06 11:40:18;;;;;;;19.38;10.50;;;;;;;;;;5094191;28;20478;-75
2022/05/06 11:42:39;;;;;;;18.77;10.35;;;;;;;;;;5088070;28;20416;-75
2022/05/06 11:47:49;;;;;;;20.38;11.02;;;;;;;;;;5086107;28;20424;-76
2022/05/06 11:50:15;;;;;;;19.10;10.05;;;;;;;;;;5076814;28;20040;-76
2022/05/06 11:52:42;;;;;;;20.50;12.13;;;;;;;;;;5061205;28;20517;-76
2022/05/06 11:55:08;;;;;;;21.45;13.20;;;;;;;;;;5061919;28;20040;-76
2022/05/06 11:57:36;;;;;;;24.65;12.07;;;19.70;95.10;;;;;;5075157;28;20533;-76
2022/05/06 12:00:07;;;;;;;25.92;13.63;;;20.50;95.10;;;;;;5075067;28;20102;-76
2022/05/06 12:02:33;;;;;;;24.58;11.98;;;20.00;90.70;;;;;;5059100;28;20044;-77
2022/05/06 12:05:00;;;;;;;21.40;12.05;;;;;;;;;;5075473;28;20113;-76
2022/05/06 12:07:45;;;;;;;21.63;11.75;;;20.00;90.30;;;;;;5071730;28;20036;-75
2022/05/06 12:10:23;;;;;;;22.17;11.95;;;20.50;91.30;;;;;;5095396;28;20576;-76
2022/05/06 12:12:54;;;;;;;20.52;12.43;;;21.00;94.90;;;;;;5095620;28;20559;-76
2022/05/06 12:15:31;;;;;;;25.35;12.65;;;20.70;94.10;;;;;;5078709;28;20104;-76
2022/05/06 12:18:10;;;;;;;20.42;11.65;;;19.60;94.00;;;;;;5076244;28;20124;-75
2022/05/06 12:20:44;;;;;;;27.17;12.77;;;19.90;94.00;;;;;;5094775;28;20115;-76
2022/05/06 12:23:11;;;;;;;32.03;14.13;;;20.80;90.00;;;;;;5095455;28;20498;-76
2022/05/06 12:25:39;;;;;;;27.00;14.63;;;21.30;93.80;;;;;;5077999;28;20555;-77
2022/05/06 12:28:16;;;;;;;26.15;13.75;;;21.50;93.70;;;;;;5095194;28;20177;-77
2022/05/06 12:30:44;;;;;;;24.40;12.27;;;20.50;93.60;;;;;;5078046;28;20054;-76
2022/05/06 12:33:13;;;;;;;23.67;13.30;;;21.90;94.00;;;;;;5077953;28;20046;-76
2022/05/06 12:36:00;;;;;;;25.88;13.95;;;21.90;93.30;;;;;;5094861;28;20054;-76
2022/05/06 12:38:46;;;;;;;26.48;15.10;;;21.90;92.70;;;;;;5094587;28;20060;-76
2022/05/06 12:41:22;;;;;;;28.65;13.48;;;20.60;92.40;;;;;;5078229;28;20043;-75
2022/05/06 12:43:48;;;;;;;27.27;15.02;;;20.50;92.50;;;;;;5077366;28;20092;-76
2022/05/06 12:46:33;;;;;;;30.15;16.17;;;22.00;92.40;;;;;;5094583;28;20075;-76
2022/05/06 12:51:45;;;;;;;25.92;13.90;;;21.40;89.00;;;;;;5074345;28;20128;-75
2022/05/06 12:54:11;;;;;;;24.80;13.90;;;21.50;92.60;;;;;;5074467;28;20072;-75
2022/05/06 12:56:39;;;;;;;27.38;14.70;;;20.80;91.80;;;;;;5057795;28;20110;-76
2022/05/06 12:59:06;;;;;;;27.48;14.02;;;21.70;92.00;;;;;;5074103;28;20131;-76
2022/05/06 13:01:32;;;;;;;29.30;15.45;;;22.10;92.10;;;;;;5074023;28;20086;-75
2022/05/06 13:03:58;;;;;;;24.83;14.55;;;21.90;92.40;;;;;;5074060;28;20045;-76
2022/05/06 13:06:24;;;;;;;26.55;14.15;;;;;;;;;;5074019;28;20036;-76
2022/05/06 13:08:49;;;;;;;37.00;15.00;;;21.90;85.90;;;;;;5073989;28;20044;-76
2022/05/06 13:11:15;;;;;;;28.95;14.30;;;;;;;;;;5074405;28;20052;-76
2022/05/06 13:13:42;;;;;;;27.02;13.80;;;21.90;91.40;;;;;;5057362;28;20044;-76
2022/05/06 13:16:08;;;;;;;31.45;14.35;;;21.50;91.20;;;;;;5074149;28;20561;-76
2022/05/06 13:18:34;;;;;;;35.47;15.32;;;22.60;91.10;;;;;;5073742;28;20048;-75
2022/05/06 13:21:01;;;;;;;29.48;15.98;;;;;;;;;;5073978;28;20419;-76
2022/05/06 13:23:26;;;;;;;27.85;14.38;;;22.20;90.60;;;;;;5073640;28;20542;-76
2022/05/06 13:25:52;;;;;;;24.42;14.65;;;22.60;81.80;;;;;;5039231;28;20048;-75
2022/05/06 13:28:19;;;;;;;26.92;15.02;;;;;;;;;;5071369;28;20393;-76
2022/05/06 13:30:44;;;;;;;30.48;16.55;;;21.00;90.30;;;;;;5055029;28;20255;-76
2022/05/06 13:33:10;;;;;;;29.65;16.48;;;;;;;;;;5056938;28;20047;-73
2022/05/06 13:35:36;;;;;;;34.83;16.58;;;22.20;90.90;;;;;;5073477;28;20079;-76
2022/05/06 13:38:02;;;;;;;25.27;14.73;;;;;;;;;;5056814;28;20075;-75
2022/05/06 13:40:28;;;;;;;32.40;16.85;;;20.60;90.70;;;;;;5056976;28;20115;-75
2022/05/06 13:42:54;;;;;;;33.65;16.63;;;22.00;90.80;;;;;;5073686;28;20522;-75
2022/05/06 13:45:20;;;;;;;29.63;16.48;;;;;;;;;;5073298;28;20476;-74
2022/05/06 13:47:46;;;;;;;38.40;19.65;;;22.10;90.40;;;;;;5073368;28;20439;-74
2022/05/06 13:50:12;;;;;;;33.50;18.40;;;22.40;90.60;;;;;;5072907;28;20109;-74
2022/05/06 13:52:38;;;;;;;34.22;15.77;;;;;;;;;;5072653;28;20053;-74
2022/05/06 13:55:05;;;;;;;33.63;16.27;;;21.80;90.00;;;;;;5072824;28;20186;-74
2022/05/06 14:00:20;;;;;;;26.98;14.05;;;22.00;82.30;;;;;;5072850;28;20109;-74
2022/05/06 14:02:47;;;;;;;41.58;15.55;;;22.00;89.80;;;;;;5072717;28;20040;-74
2022/05/06 14:05:15;;;;;;;28.17;15.07;;;22.20;79.90;;;;;;5073129;28;20049;-74
2022/05/06 14:07:41;;;;;;;27.65;14.85;;;22.30;79.50;;;;;;5056402;28;20098;-74
2022/05/06 14:10:08;;;;;;;30.65;15.68;;;23.00;83.80;;;;;;5072769;28;20128;-74
2022/05/06 14:12:33;;;;;;;30.13;14.98;;;23.20;90.00;;;;;;5072853;28;20484;-75
2022/05/06 14:15:00;;;;;;;34.28;15.40;;;;;;;;;;5056312;28;20045;-74
2022/05/06 14:17:25;;;;;;;29.40;15.80;;;23.30;89.00;;;;;;5056016;28;20052;-75
2022/05/06 14:19:55;;;;;;;33.83;16.30;;;22.50;77.60;;;;;;5056021;28;20036;-76
2022/05/06 14:22:21;;;;;;;27.90;15.85;;;23.20;88.20;;;;;;5072562;28;20094;-76
2022/05/06 14:24:48;;;;;;;31.17;17.05;;;22.40;78.30;;;;;;5072904;28;20036;-77
2022/05/06 14:27:15;;;;;;;29.60;15.52;;;22.40;77.90;;;;;;5055996;28;20040;-77
2022/05/06 14:29:41;;;;;;;27.25;15.30;;;;;;;;;;5072339;28;20101;-76